Time;durP1;ratioP1;P1;durP2;ratioP2;P2;SDS_P1;SDS_P2;PMS_P1;PMS_P2;Temp;Humidity;BMP_temperature;BMP_pressure;BME280_temperature;BME280_humidity;BME280_pressure;Samples;Min_cycle;Max_cycle;Signal;HPM_P1;HPM_P2
2023/08/23 00:02:25;;;;;;;3.53;1.38;;;;;;;;;;5076918;28;20020;-91
2023/08/23 00:04:50;;;;;;;4.97;1.67;;;;;;;;;;5075577;28;20107;-91
2023/08/23 00:07:18;;;;;;;6.05;1.58;;;;;;;;;;5057930;28;20020;-91
2023/08/23 00:09:43;;;;;;;10.93;1.52;;;;;;;;;;5072727;28;20028;-91
2023/08/23 00:12:08;;;;;;;3.97;1.35;;;;;;;;;;5055023;28;20456;-91
2023/08/23 00:14:35;;;;;;;7.93;1.40;;;;;;;;;;5072996;28;20009;-91
2023/08/23 00:17:01;;;;;;;6.15;1.40;;;;;;;;;;5072914;28;20021;-92
2023/08/23 00:19:26;;;;;;;9.60;1.40;;;;;;;;;;5055005;28;20023;-92
2023/08/23 00:21:51;;;;;;;5.30;1.92;;;;;;;;;;5054876;28;20045;-91
2023/08/23 00:24:18;;;;;;;6.38;1.67;;;;;;;;;;5055092;28;20009;-91
2023/08/23 00:26:46;;;;;;;8.63;2.33;;;;;;;;;;5071727;28;20017;-91
2023/08/23 00:29:12;;;;;;;2.33;1.48;;;;;;;;;;5054355;28;20109;-91
2023/08/23 00:31:38;;;;;;;3.45;1.60;;;;;;;;;;5054251;28;20025;-91
2023/08/23 00:34:03;;;;;;;8.20;1.77;;;;;;;;;;5056264;28;20016;-92
2023/08/23 00:36:28;;;;;;;4.57;1.73;;;;;;;;;;5058956;28;20024;-91
2023/08/23 00:38:56;;;;;;;3.92;1.40;;;;;;;;;;5058583;28;20114;-91
2023/08/23 00:41:22;;;;;;;7.75;1.90;;;;;;;;;;5057452;28;20362;-91
2023/08/23 00:43:51;;;;;;;6.15;1.83;;;;;;;;;;5058902;28;20468;-91
2023/08/23 00:46:19;;;;;;;4.03;1.77;;;;;;;;;;5058177;28;20043;-91
2023/08/23 00:48:50;;;;;;;6.00;1.88;;;;;;;;;;5058238;28;20560;-91
2023/08/23 00:51:18;;;;;;;2.65;1.60;;;;;;;;;;5075072;28;20178;-92
2023/08/23 00:53:44;;;;;;;2.92;1.48;;;;;;;;;;5051811;28;20024;-91
2023/08/23 00:56:10;;;;;;;3.20;1.85;;;;;;;;;;5075270;28;20016;-91
2023/08/23 00:58:36;;;;;;;4.78;1.88;;;;;;;;;;5057585;28;20024;-91
2023/08/23 01:01:01;;;;;;;5.88;1.90;;;;;;;;;;5076255;28;20021;-90
2023/08/23 01:03:29;;;;;;;7.15;1.90;;;;;;;;;;5056992;28;20043;-91
2023/08/23 01:06:13;;;;;;;4.30;1.58;;;;;;;;;;5057984;28;20033;-91
2023/08/23 01:08:48;;;;;;;5.53;1.70;;;;;;;;;;5045356;28;20044;-91
2023/08/23 01:11:24;;;;;;;2.53;1.75;;;;;;;;;;5058839;28;20388;-91
2023/08/23 01:14:11;;;;;;;5.53;1.80;;;;;;;;;;5077003;28;20024;-91
2023/08/23 01:16:38;;;;;;;3.05;1.80;;;;;;;;;;5058183;28;20088;-91
2023/08/23 01:19:24;;;;;;;4.80;2.25;;;;;;;;;;5077863;28;20086;-91
2023/08/23 01:21:51;;;;;;;3.10;1.75;;;;;;;;;;5073479;28;20029;-90
2023/08/23 01:24:16;;;;;;;5.47;1.90;;;;;;;;;;5057528;28;20067;-91
2023/08/23 01:26:44;;;;;;;2.92;1.75;;;;;;;;;;5094785;28;20021;-91
2023/08/23 01:29:09;;;;;;;3.17;1.70;;;;;;;;;;5076323;28;20017;-91
2023/08/23 01:31:43;;;;;;;3.10;1.63;;;;;;;;;;5075632;28;20024;-91
2023/08/23 01:34:10;;;;;;;5.53;1.80;;;;;;;;;;5043729;28;20023;-91
2023/08/23 01:36:37;;;;;;;2.38;1.73;;;;;;;;;;5057486;28;20032;-91
2023/08/23 01:39:02;;;;;;;4.38;1.88;;;;;;;;;;5075621;28;20021;-91
2023/08/23 01:41:28;;;;;;;3.85;1.73;;;;;;;;;;5066222;28;20050;-91
2023/08/23 01:43:53;;;;;;;5.70;1.65;;;;;;;;;;5057266;28;20035;-91
2023/08/23 01:46:19;;;;;;;3.90;1.75;;;;;;;;;;5056822;28;20027;-91
2023/08/23 01:48:44;;;;;;;4.22;1.70;;;;;;;;;;5075093;28;20070;-91
2023/08/23 01:51:09;;;;;;;5.95;1.67;;;;;;;;;;5056332;28;20013;-91
2023/08/23 01:53:35;;;;;;;2.65;1.73;;;;;;;;;;5056738;28;20021;-91
2023/08/23 01:56:00;;;;;;;2.97;1.75;;;;;;;;;;5056255;28;20017;-91
2023/08/23 01:58:28;;;;;;;2.55;1.60;;;;;;;;;;5056424;28;20063;-91
2023/08/23 02:00:54;;;;;;;7.22;1.90;;;;;;;;;;5055350;28;20395;-91
2023/08/23 02:03:19;;;;;;;5.32;2.00;;;;;;;;;;5073313;28;20027;-91
2023/08/23 02:05:45;;;;;;;5.60;1.83;;;;;;;;;;5055711;28;20052;-91
2023/08/23 02:08:10;;;;;;;5.97;1.80;;;;;;;;;;5073964;28;20017;-91
2023/08/23 02:10:38;;;;;;;2.13;1.70;;;;;;;;;;5064243;28;20016;-91
2023/08/23 02:13:05;;;;;;;3.50;1.80;;;;;;;;;;5072097;28;20016;-91
2023/08/23 02:15:30;;;;;;;4.65;1.80;;;;;;;;;;5055753;28;20021;-91
2023/08/23 02:17:56;;;;;;;5.35;1.80;;;;;;;;;;5056953;28;20031;-91
2023/08/23 02:20:24;;;;;;;4.50;1.65;;;;;;;;;;5055443;28;20063;-91
2023/08/23 02:22:50;;;;;;;2.97;1.80;;;;;;;;;;5055758;28;20020;-91
2023/08/23 02:25:15;;;;;;;2.28;1.52;;;;;;;;;;5055828;28;20078;-90
2023/08/23 02:27:40;;;;;;;7.10;2.05;;;;;;;;;;5057433;28;20031;-91
2023/08/23 02:30:06;;;;;;;2.90;1.45;;;;;;;;;;5056182;28;20027;-91
2023/08/23 02:32:32;;;;;;;2.78;1.52;;;;;;;;;;5070585;28;20028;-91
2023/08/23 02:34:58;;;;;;;2.22;1.70;;;;;;;;;;5063329;28;20035;-91
2023/08/23 02:37:26;;;;;;;2.78;1.58;;;;;;;;;;5060338;28;20084;-91
2023/08/23 02:39:52;;;;;;;3.10;1.55;;;;;;;;;;5059020;28;20024;-91
2023/08/23 02:42:17;;;;;;;4.50;1.65;;;;;;;;;;5076316;28;20353;-91
2023/08/23 02:44:45;;;;;;;3.20;1.48;;;;;;;;;;5056162;28;20028;-91
2023/08/23 02:47:10;;;;;;;9.93;1.83;;;;;;;;;;5055951;28;20052;-90
2023/08/23 02:49:35;;;;;;;3.03;1.80;;;;;;;;;;5056723;28;20023;-91
2023/08/23 02:52:01;;;;;;;4.75;1.80;;;;;;;;;;5056073;28;20028;-91
2023/08/23 02:54:26;;;;;;;4.32;1.75;;;;;;;;;;5055869;28;20063;-91
2023/08/23 02:56:52;;;;;;;5.32;1.65;;;;;;;;;;5054640;28;20024;-91
2023/08/23 02:59:17;;;;;;;1.70;1.40;;;;;;;;;;5056208;28;20086;-91
2023/08/23 03:01:42;;;;;;;5.65;1.55;;;;;;;;;;5061336;28;20021;-91
2023/08/23 03:04:08;;;;;;;3.85;1.45;;;;;;;;;;5060207;28;20039;-91
2023/08/23 03:06:33;;;;;;;3.75;1.50;;;;;;;;;;5054317;28;20020;-90
2023/08/23 03:08:58;;;;;;;2.17;1.50;;;;;;;;;;5055270;28;20024;-91
2023/08/23 03:11:23;;;;;;;3.65;1.50;;;;;;;;;;5054708;28;20020;-91
2023/08/23 03:13:51;;;;;;;5.10;1.50;;;;;;;;;;5072633;28;20021;-91
2023/08/23 03:16:19;;;;;;;3.60;1.58;;;;;;;;;;5053773;28;20943;-91
2023/08/23 03:18:44;;;;;;;2.60;1.40;;;;;;;;;;5053945;28;20035;-91
2023/08/23 03:21:12;;;;;;;13.57;1.67;;;;;;;;;;5083293;28;20447;-90
2023/08/23 03:23:37;;;;;;;2.25;1.45;;;;;;;;;;5056984;28;20078;-92
2023/08/23 03:26:03;;;;;;;3.72;1.58;;;;;;;;;;5053930;28;20028;-91
2023/08/23 03:28:28;;;;;;;3.47;1.52;;;;;;;;;;5054681;28;20047;-91
2023/08/23 03:30:53;;;;;;;5.00;1.40;;;;;;;;;;5072728;28;20036;-90
2023/08/23 03:33:19;;;;;;;2.13;1.23;;;;;;;;;;5055358;28;20104;-90
2023/08/23 03:35:54;;;;;;;2.78;1.40;;;;;;;;;;5055614;28;20483;-90
2023/08/23 03:38:19;;;;;;;3.33;1.50;;;;;;;;;;5071626;28;20043;-91
2023/08/23 03:40:47;;;;;;;8.23;1.80;;;;;;;;;;5072935;28;20024;-90
2023/08/23 03:43:13;;;;;;;2.90;1.63;;;;;;;;;;5061286;28;20039;-91
2023/08/23 03:45:44;;;;;;;2.28;1.40;;;;;;;;;;5055334;28;20036;-90
2023/08/23 03:48:10;;;;;;;7.18;1.40;;;;;;;;;;5066667;28;20021;-90
2023/08/23 03:50:35;;;;;;;2.53;1.58;;;;;;;;;;5085189;28;20034;-90
2023/08/23 03:53:07;;;;;;;4.65;1.40;;;;;;;;;;5082002;28;20009;-91
2023/08/23 03:55:36;;;;;;;4.70;1.58;;;;;;;;;;5074993;28;20490;-90
2023/08/23 03:58:05;;;;;;;3.60;1.70;;;;;;;;;;5081991;28;20356;-90
2023/08/23 04:00:31;;;;;;;2.95;1.50;;;;;;;;;;5061890;28;20103;-90
2023/08/23 04:02:56;;;;;;;1.85;1.38;;;;;;;;;;5057325;28;20149;-90
2023/08/23 04:05:22;;;;;;;5.93;1.50;;;;;;;;;;5058544;28;20103;-90
2023/08/23 04:07:47;;;;;;;6.90;1.40;;;;;;;;;;5073714;28;20016;-90
2023/08/23 04:10:12;;;;;;;2.60;1.60;;;;;;;;;;5082514;28;20017;-90
2023/08/23 04:12:38;;;;;;;3.63;1.58;;;;;;;;;;5058230;28;20525;-90
2023/08/23 04:15:06;;;;;;;2.00;1.45;;;;;;;;;;5087282;28;20107;-90
2023/08/23 04:17:31;;;;;;;3.45;1.58;;;;;;;;;;5080088;28;20024;-91
2023/08/23 04:19:59;;;;;;;2.58;1.17;;;;;;;;;;5059530;28;20516;-90
2023/08/23 04:22:25;;;;;;;3.20;1.50;;;;;;;;;;5088955;28;20093;-90
2023/08/23 04:24:51;;;;;;;1.30;1.10;;;;;;;;;;5058429;28;20099;-90
2023/08/23 04:27:16;;;;;;;3.17;1.30;;;;;;;;;;5076360;28;20031;-90
2023/08/23 04:29:41;;;;;;;2.42;1.23;;;;;;;;;;5058583;28;20017;-90
2023/08/23 04:32:10;;;;;;;2.72;1.45;;;;;;;;;;5076311;28;20013;-90
2023/08/23 04:34:35;;;;;;;3.35;1.33;;;;;;;;;;5076483;28;20013;-90
2023/08/23 04:37:00;;;;;;;4.20;1.50;;;;;;;;;;5058055;28;20100;-90
2023/08/23 04:39:25;;;;;;;3.22;1.30;;;;;;;;;;5075916;28;20008;-88
2023/08/23 04:41:51;;;;;;;4.20;1.42;;;;;;;;;;5058524;28;20052;-90
2023/08/23 04:44:16;;;;;;;3.28;1.42;;;;;;;;;;5058431;28;20014;-89
2023/08/23 04:46:41;;;;;;;3.45;1.20;;;;;;;;;;5057893;28;20024;-89
2023/08/23 04:49:07;;;;;;;1.75;1.13;;;;;;;;;;5075824;28;20016;-90
2023/08/23 04:51:32;;;;;;;3.72;1.25;;;;;;;;;;5057690;28;20005;-89
2023/08/23 04:53:57;;;;;;;7.53;1.30;;;;;;;;;;5077506;28;20021;-89
2023/08/23 04:56:22;;;;;;;1.20;0.90;;;;;;;;;;5057811;28;20421;-90
2023/08/23 04:58:48;;;;;;;1.80;1.10;;;;;;;;;;5058089;28;20028;-90
2023/08/23 05:01:14;;;;;;;3.22;1.33;;;;;;;;;;5075612;28;20013;-90
2023/08/23 05:03:39;;;;;;;5.97;1.63;;;;;;;;;;5057627;28;20056;-89
2023/08/23 05:06:04;;;;;;;5.93;1.73;;;;;;;;;;5058882;28;20019;-89
2023/08/23 05:08:33;;;;;;;6.50;1.95;;;;;;;;;;5058681;28;20495;-90
2023/08/23 05:10:58;;;;;;;4.60;1.48;;;;;;;;;;5075332;28;20024;-89
2023/08/23 05:13:29;;;;;;;8.23;1.90;;;;;;;;;;5075529;28;20015;-90
2023/08/23 05:15:57;;;;;;;4.07;1.60;;;;;;;;;;5058865;28;20027;-90
2023/08/23 05:18:23;;;;;;;7.22;1.80;;;;;;;;;;5048956;28;20020;-90
2023/08/23 05:20:54;;;;;;;3.47;1.90;;;;;;;;;;5066673;28;20032;-89
2023/08/23 05:23:19;;;;;;;7.55;2.28;;;;;;;;;;5083518;28;20023;-90
2023/08/23 05:25:45;;;;;;;10.07;2.25;;;;;;;;;;5075565;28;20020;-90
2023/08/23 05:28:10;;;;;;;6.28;1.88;;;;;;;;;;5061382;28;20087;-91
2023/08/23 05:30:38;;;;;;;7.30;1.80;;;;;;;;;;5061593;28;20013;-90
2023/08/23 05:33:06;;;;;;;6.10;1.85;;;;;;;;;;5060864;28;20017;-90
2023/08/23 05:35:32;;;;;;;10.55;2.17;;;;;;;;;;5076277;28;20052;-89
2023/08/23 05:37:58;;;;;;;5.53;1.92;;;;;;;;;;5056552;28;20394;-90
2023/08/23 05:40:23;;;;;;;4.00;2.08;;;;;;;;;;5056622;28;20024;-90
2023/08/23 05:42:48;;;;;;;4.47;1.60;;;;;;;;;;5056112;28;20025;-90
2023/08/23 05:45:14;;;;;;;4.95;1.70;;;;;;;;;;5056336;28;20024;-90
2023/08/23 05:47:39;;;;;;;3.45;2.05;;;;;;;;;;5055636;28;20061;-90
2023/08/23 05:50:07;;;;;;;4.55;2.20;;;;;;;;;;5056672;28;20016;-90
2023/08/23 05:52:32;;;;;;;3.13;1.70;;;;;;;;;;5073958;28;20013;-90
2023/08/23 05:54:57;;;;;;;4.60;1.73;;;;;;;;;;5052636;28;20031;-90
2023/08/23 05:57:23;;;;;;;4.00;2.28;;;;;;;;;;5056806;28;20016;-90
2023/08/23 05:59:48;;;;;;;3.33;2.22;;;;;;;;;;5069881;28;20063;-90
2023/08/23 06:02:13;;;;;;;4.95;1.95;;;;;;;;;;5074607;28;20027;-90
2023/08/23 06:04:38;;;;;;;9.65;2.72;;;;;;;;;;5057215;28;20024;-90
2023/08/23 06:07:04;;;;;;;7.22;2.30;;;;;;;;;;5074578;28;20104;-90
2023/08/23 06:09:30;;;;;;;3.85;2.33;;;;;;;;;;5072833;28;20044;-90
2023/08/23 06:11:56;;;;;;;7.15;2.95;;;;;;;;;;5056564;28;20369;-90
2023/08/23 06:14:24;;;;;;;3.88;2.40;;;;;;;;;;5056299;28;20027;-90
2023/08/23 06:16:52;;;;;;;4.45;2.53;;;;;;;;;;5054871;28;20418;-90
2023/08/23 06:19:17;;;;;;;5.53;3.65;;;;;;;;;;5067172;28;20020;-90
2023/08/23 06:21:43;;;;;;;8.95;3.53;;;;;;;;;;5058896;28;20028;-90
2023/08/23 06:24:14;;;;;;;6.30;3.85;;;;;;;;;;5073345;28;20085;-90
2023/08/23 06:26:39;;;;;;;8.68;3.67;;;;;;;;;;5056057;28;20539;-90
2023/08/23 06:29:04;;;;;;;9.32;3.72;;;;;;;;;;5074740;28;20055;-90
2023/08/23 06:31:30;;;;;;;11.40;3.83;;;;;;;;;;5057111;28;20492;-90
2023/08/23 06:33:55;;;;;;;5.30;3.35;;;;;;;;;;5072756;28;20016;-90
2023/08/23 06:36:20;;;;;;;9.23;4.20;;;;;;;;;;5061089;28;20029;-88
2023/08/23 06:38:47;;;;;;;9.68;4.25;;;;;;;;;;5056551;28;20021;-90
2023/08/23 06:41:12;;;;;;;6.40;3.60;;;;;;;;;;5081994;28;20025;-90
2023/08/23 06:43:41;;;;;;;10.00;4.45;;;;;;;;;;5051297;28;20092;-90
2023/08/23 06:46:06;;;;;;;7.05;4.63;;;;;;;;;;5056596;28;20055;-90
2023/08/23 06:48:32;;;;;;;13.27;5.30;;;;;;;;;;5076089;28;20437;-90
2023/08/23 06:51:00;;;;;;;10.23;5.70;;;;;;;;;;5057228;28;20491;-90
2023/08/23 06:53:28;;;;;;;14.07;6.25;;;;;;;;;;5057827;28;20035;-89
2023/08/23 06:55:54;;;;;;;14.95;6.85;;;;;;;;;;5074910;28;20077;-89
2023/08/23 06:58:22;;;;;;;15.23;6.95;;;;;;;;;;5074369;28;20032;-89
2023/08/23 07:00:47;;;;;;;11.50;7.18;;;;;;;;;;5056101;28;20111;-90
2023/08/23 07:03:13;;;;;;;13.68;7.85;;;;;;;;;;5060207;28;20055;-89
2023/08/23 07:05:38;;;;;;;15.50;8.27;;;;;;;;;;5073753;28;20024;-89
2023/08/23 07:08:03;;;;;;;20.48;9.15;;;;;;;;;;5074811;28;20017;-88
2023/08/23 07:10:30;;;;;;;18.45;8.48;;;;;;;;;;5052264;28;20021;-89
2023/08/23 07:12:55;;;;;;;16.73;9.75;;;;;;;;;;5070961;28;20016;-88
2023/08/23 07:15:21;;;;;;;16.45;9.27;;;;;;;;;;5070960;28;20039;-88
2023/08/23 07:17:46;;;;;;;17.98;8.65;;;;;;;;;;5072942;28;20039;-88
2023/08/23 07:20:13;;;;;;;18.73;8.23;;;;;;;;;;5050829;28;20033;-88
2023/08/23 07:22:39;;;;;;;13.32;7.20;;;;;;;;;;5051687;28;20048;-88
2023/08/23 07:25:04;;;;;;;14.25;7.55;;;;;;;;;;5067031;28;20059;-88
2023/08/23 07:27:29;;;;;;;23.77;8.15;;;;;;;;;;5061444;28;20055;-88
2023/08/23 07:29:55;;;;;;;16.00;7.65;;;;;;;;;;5061844;28;20025;-89
2023/08/23 07:32:20;;;;;;;19.90;8.38;;;;;;;;;;5053009;28;20111;-89
2023/08/23 07:34:45;;;;;;;22.77;7.95;;;;;;;;;;5055349;28;20056;-89
2023/08/23 07:37:11;;;;;;;17.42;7.97;;;;;;;;;;5054839;28;20028;-89
2023/08/23 07:39:36;;;;;;;16.88;7.47;;;;;;;;;;5055080;28;20020;-88
2023/08/23 07:42:01;;;;;;;17.90;7.55;;;;;;;;;;5052364;28;20120;-88
2023/08/23 07:44:26;;;;;;;14.18;7.13;;;;;;;;;;5053595;28;20016;-86
2023/08/23 07:46:52;;;;;;;16.00;6.78;;;;;;;;;;5067056;28;20032;-85
2023/08/23 07:49:20;;;;;;;11.30;6.35;;;;;;;;;;5061945;28;20032;-85
2023/08/23 07:51:45;;;;;;;10.70;6.07;;;;;;;;;;5060549;28;20375;-86
2023/08/23 07:54:11;;;;;;;12.35;5.55;;;;;;;;;;5073011;28;20004;-86
2023/08/23 07:56:37;;;;;;;13.38;5.47;;;;;;;;;;5052000;28;20036;-86
2023/08/23 07:59:05;;;;;;;11.77;5.43;;;;;;;;;;5059427;28;20021;-86
2023/08/23 08:01:30;;;;;;;2.90;1.38;;;;;;;;;;5054454;28;20502;-86
2023/08/23 08:03:56;;;;;;;12.55;5.88;;;;;;;;;;5070612;28;20029;-86
2023/08/23 08:06:22;;;;;;;13.05;6.22;;;;;;;;;;5056603;28;20021;-86
2023/08/23 08:08:49;;;;;;;12.07;5.45;;;;;;;;;;5056936;28;20040;-85
2023/08/23 08:11:15;;;;;;;18.45;5.88;;;;;;;;;;5073168;28;20441;-87
2023/08/23 08:13:41;;;;;;;16.38;7.18;;;;;;;;;;5048113;28;20472;-84
2023/08/23 08:16:11;;;;;;;13.05;6.45;;;;;;;;;;5060581;28;20029;-86
2023/08/23 08:18:36;;;;;;;15.68;6.22;;;;;;;;;;5071094;28;20036;-86
2023/08/23 08:21:02;;;;;;;18.02;6.43;;;;;;;;;;5073302;28;20028;-86
2023/08/23 08:23:28;;;;;;;14.32;6.07;;;;;;;;;;5089385;28;20475;-86
2023/08/23 08:25:53;;;;;;;13.13;5.85;;;;;;;;;;5055698;28;20490;-86
2023/08/23 08:28:18;;;;;;;11.63;5.15;;;;;;;;;;5056907;28;20428;-86
2023/08/23 08:30:44;;;;;;;10.55;5.15;;;;;;;;;;5055620;28;20480;-86
2023/08/23 08:33:09;;;;;;;12.18;4.75;;;;;;;;;;5072790;28;20021;-86
2023/08/23 08:35:34;;;;;;;14.80;5.03;;;;;;;;;;5055818;28;20020;-86
2023/08/23 08:38:00;;;;;;;15.98;6.32;;;;;;;;;;5055497;28;20032;-86
2023/08/23 08:40:25;;;;;;;12.00;4.78;;;;;;;;;;5073005;28;20025;-86
2023/08/23 08:42:51;;;;;;;14.82;6.53;;;;;;;;;;5054031;28;20021;-86
2023/08/23 08:45:16;;;;;;;16.25;6.18;;;;;;;;;;5048352;28;20033;-86
2023/08/23 08:47:42;;;;;;;12.98;5.97;;;;;;;;;;5071405;28;20016;-86
2023/08/23 08:50:07;;;;;;;12.40;5.40;;;;;;;;;;5050794;28;20021;-86
2023/08/23 08:52:33;;;;;;;13.15;5.05;;;;;;;;;;5058446;28;20101;-86
2023/08/23 08:54:59;;;;;;;17.60;7.03;;;;;;;;;;5046967;28;20094;-86
2023/08/23 08:57:25;;;;;;;16.35;5.45;;;;;;;;;;5075760;28;20187;-86
2023/08/23 08:59:54;;;;;;;18.42;5.35;;;;;;;;;;5056444;28;20025;-86
2023/08/23 09:02:20;;;;;;;17.67;5.60;;;;;;;;;;5052242;28;20024;-86
2023/08/23 09:04:50;;;;;;;11.95;5.05;;;;;;;;;;5075723;28;20025;-86
2023/08/23 09:07:16;;;;;;;11.35;5.32;;;;;;;;;;5057910;28;20016;-86
2023/08/23 09:09:42;;;;;;;12.88;5.22;;;;;;;;;;5075196;28;20017;-87
2023/08/23 09:12:07;;;;;;;7.53;4.00;;;;;;;;;;5057427;28;20088;-86
2023/08/23 09:14:33;;;;;;;13.35;5.05;;;;;;;;;;5075794;28;20082;-86
2023/08/23 09:17:00;;;;;;;16.25;5.55;;;;;;;;;;5058124;28;20057;-86
2023/08/23 09:19:26;;;;;;;11.32;5.40;;;;;;;;;;5056316;28;20044;-84
2023/08/23 09:21:51;;;;;;;12.77;5.55;;;;;;;;;;5075514;28;20048;-86
2023/08/23 09:24:18;;;;;;;16.67;5.00;;;;;;;;;;5057904;28;20024;-86
2023/08/23 09:26:44;;;;;;;14.32;6.65;;;;;;;;;;5057507;28;20107;-86
2023/08/23 09:29:09;;;;;;;14.18;5.03;;;;;;;;;;5072520;28;20025;-86
2023/08/23 09:31:34;;;;;;;11.20;5.05;;;;;;;;;;5055322;28;20027;-88
2023/08/23 09:34:00;;;;;;;12.05;4.63;;;;;;;;;;5065354;28;20154;-87
2023/08/23 09:36:27;;;;;;;12.68;4.88;;;;;;;;;;5075061;28;20024;-87
2023/08/23 09:38:53;;;;;;;21.60;5.25;;;;;;;;;;5057253;28;20066;-86
2023/08/23 09:41:18;;;;;;;12.52;4.45;;;;;;;;;;5069107;28;20055;-87
2023/08/23 09:43:44;;;;;;;11.60;4.13;;;;;;;;;;5049585;28;20389;-87
2023/08/23 09:46:16;;;;;;;10.25;4.15;;;;;;;;;;5076124;28;20025;-87
2023/08/23 09:48:41;;;;;;;;;;;;;;;;;;5060185;28;20029;-87
2023/08/23 09:51:08;;;;;;;9.65;4.32;;;;;;;;;;5068254;28;19905;-87
2023/08/23 09:53:34;;;;;;;10.38;5.20;;;;;;;;;;5057614;28;20012;-89
2023/08/23 09:56:02;;;;;;;9.07;4.72;;;;;;;;;;5056161;28;20031;-88
2023/08/23 09:58:27;;;;;;;12.95;4.35;;;;;;;;;;5056798;28;20111;-88
2023/08/23 10:00:56;;;;;;;9.02;3.42;;;;;;;;;;5064039;28;20067;-88
2023/08/23 10:03:22;;;;;;;7.10;2.95;;;;;;;;;;5070732;28;20383;-88
2023/08/23 10:05:48;;;;;;;6.75;3.45;;;;;;;;;;5073923;28;20021;-89
2023/08/23 10:08:14;;;;;;;12.05;3.75;;;;;;;;;;5078083;28;20310;-88
2023/08/23 10:10:42;;;;;;;7.70;3.30;;;;;;;;;;5065052;28;20036;-89
2023/08/23 10:13:07;;;;;;;12.05;3.63;;;;;;;;;;5056380;28;20441;-88
2023/08/23 10:15:38;;;;;;;10.02;3.55;;;;;;;;;;5054674;28;20044;-88
2023/08/23 10:18:04;;;;;;;6.30;3.13;;;;;;;;;;5054658;28;20024;-88
2023/08/23 10:20:33;;;;;;;10.80;2.90;;;;;;;;;;5055733;28;20034;-88
2023/08/23 10:22:58;;;;;;;11.70;4.30;;;;;;;;;;5053807;28;20028;-88
2023/08/23 10:25:23;;;;;;;5.55;2.20;;;;;;;;;;5072953;28;20032;-87
2023/08/23 10:27:51;;;;;;;4.30;2.25;;;;;;;;;;5054407;28;20020;-88
2023/08/23 10:30:22;;;;;;;5.40;2.30;;;;;;;;;;5056271;28;20041;-88
2023/08/23 10:32:47;;;;;;;6.32;2.83;;;;;;;;;;5073759;28;20466;-89
2023/08/23 10:35:28;;;;;;;7.28;2.80;;;;;;;;;;5056090;28;20028;-88
2023/08/23 10:37:55;;;;;;;7.10;2.20;;;;;;;;;;5074109;28;21012;-88
2023/08/23 10:40:21;;;;;;;1.85;1.13;;;;;;;;;;5067752;28;20028;-89
2023/08/23 10:42:48;;;;;;;3.33;1.15;;;;;;;;;;5089046;28;20058;-88
2023/08/23 10:45:14;;;;;;;4.97;1.23;;;;;;;;;;5060215;28;20021;-88
2023/08/23 10:47:39;;;;;;;2.10;1.13;;;;;;;;;;5054950;28;20016;-88
2023/08/23 10:50:05;;;;;;;3.40;1.00;;;;;;;;;;5054368;28;20032;-88
2023/08/23 10:52:33;;;;;;;4.13;0.98;;;;;;;;;;5067389;28;20020;-89
2023/08/23 10:54:59;;;;;;;4.72;1.40;;;;;;;;;;5044942;28;20792;-88
2023/08/23 10:57:24;;;;;;;3.03;1.30;;;;;;;;;;5053175;28;20017;-89
2023/08/23 10:59:50;;;;;;;2.47;1.20;;;;;;;;;;5071810;28;20420;-89
2023/08/23 11:02:18;;;;;;;2.55;1.05;;;;;;;;;;5051081;28;20012;-88
2023/08/23 11:04:44;;;;;;;3.63;1.10;;;;;;;;;;5061155;28;20037;-89
2023/08/23 11:07:09;;;;;;;4.35;1.00;;;;;;;;;;5055311;28;20498;-87
2023/08/23 11:09:35;;;;;;;3.53;1.20;;;;;;;;;;5072138;28;20016;-89
2023/08/23 11:12:01;;;;;;;2.13;1.20;;;;;;;;;;5057260;28;20047;-89
2023/08/23 11:14:26;;;;;;;5.15;1.10;;;;;;;;;;5073465;28;20643;-89
2023/08/23 11:16:52;;;;;;;3.00;1.40;;;;;;;;;;5073238;28;20472;-89
2023/08/23 11:19:17;;;;;;;7.28;1.52;;;;;;;;;;5057496;28;20024;-88
2023/08/23 11:21:43;;;;;;;3.17;1.25;;;;;;;;;;5055115;28;20024;-89
2023/08/23 11:24:08;;;;;;;3.72;1.30;;;;;;;;;;5054651;28;20028;-88
2023/08/23 11:26:34;;;;;;;4.55;1.17;;;;;;;;;;5055174;28;20027;-88
2023/08/23 11:29:00;;;;;;;1.95;1.17;;;;;;;;;;5071152;28;20032;-89
2023/08/23 11:31:25;;;;;;;3.30;1.30;;;;;;;;;;5054008;28;20250;-88
2023/08/23 11:33:50;;;;;;;2.17;1.10;;;;;;;;;;5055353;28;20017;-89
2023/08/23 11:36:19;;;;;;;2.97;1.20;;;;;;;;;;5056222;28;20023;-88
2023/08/23 11:38:48;;;;;;;4.97;1.70;;;;;;;;;;5077348;28;20412;-89
2023/08/23 11:41:13;;;;;;;3.08;1.60;;;;;;;;;;5060494;28;20028;-88
2023/08/23 11:43:43;;;;;;;3.25;1.30;;;;;;;;;;5051465;28;20326;-89
2023/08/23 11:46:11;;;;;;;2.42;1.17;;;;;;;;;;5059075;28;20106;-88
2023/08/23 11:48:37;;;;;;;7.70;1.40;;;;;;;;;;5056579;28;20103;-89
2023/08/23 11:51:03;;;;;;;4.63;1.50;;;;;;;;;;5072753;28;20114;-89
2023/08/23 11:53:28;;;;;;;3.97;1.35;;;;;;;;;;5071404;28;20155;-89
2023/08/23 11:55:54;;;;;;;5.25;1.30;;;;;;;;;;5053720;28;20048;-89
2023/08/23 11:58:19;;;;;;;2.28;1.27;;;;;;;;;;5053733;28;20024;-89
2023/08/23 12:00:47;;;;;;;2.67;1.38;;;;;;;;;;5071838;28;20103;-89
2023/08/23 12:03:12;;;;;;;3.03;1.30;;;;;;;;;;5054243;28;20383;-89
2023/08/23 12:05:37;;;;;;;3.45;1.15;;;;;;;;;;5072508;28;20483;-89
2023/08/23 12:08:03;;;;;;;3.45;1.65;;;;;;;;;;5054078;28;20020;-88
2023/08/23 12:10:29;;;;;;;3.70;1.10;;;;;;;;;;5054239;28;20070;-88
2023/08/23 12:12:55;;;;;;;3.53;1.38;;;;;;;;;;5050516;28;20020;-89
2023/08/23 12:15:20;;;;;;;3.13;1.20;;;;;;;;;;5053578;28;20120;-88
2023/08/23 12:17:45;;;;;;;2.25;1.30;;;;;;;;;;5054233;28;20380;-89
2023/08/23 12:20:11;;;;;;;3.55;1.30;;;;;;;;;;5053824;28;20440;-89
2023/08/23 12:22:37;;;;;;;3.42;1.50;;;;;;;;;;5050690;28;20080;-88
2023/08/23 12:25:04;;;;;;;3.05;1.17;;;;;;;;;;5054715;28;20112;-88
2023/08/23 12:27:29;;;;;;;6.13;1.27;;;;;;;;;;5071303;28;20078;-88
2023/08/23 12:29:54;;;;;;;3.10;1.23;;;;;;;;;;5054037;28;20028;-90
2023/08/23 12:32:20;;;;;;;6.25;1.52;;;;;;;;;;5063062;28;20051;-88
2023/08/23 12:34:46;;;;;;;10.55;1.73;;;;;;;;;;5058394;28;20089;-89
2023/08/23 12:37:11;;;;;;;5.95;1.33;;;;;;;;;;5076765;28;20020;-89
2023/08/23 12:39:36;;;;;;;1.92;1.10;;;;;;;;;;5077689;28;20096;-88
2023/08/23 12:42:03;;;;;;;2.67;1.50;;;;;;;;;;5058937;28;20120;-89
2023/08/23 12:44:30;;;;;;;2.45;1.10;;;;;;;;;;5058300;28;20030;-88
2023/08/23 12:46:55;;;;;;;4.40;1.50;;;;;;;;;;5058668;28;20029;-88
2023/08/23 12:49:22;;;;;;;3.03;1.20;;;;;;;;;;5058967;28;20038;-89
2023/08/23 12:51:47;;;;;;;2.72;1.40;;;;;;;;;;5075777;28;20071;-85
2023/08/23 12:54:18;;;;;;;3.17;1.50;;;;;;;;;;5056823;28;20376;-86
2023/08/23 12:56:43;;;;;;;2.47;1.38;;;;;;;;;;5075598;28;20029;-86
2023/08/23 12:59:09;;;;;;;4.25;1.45;;;;;;;;;;5057107;28;20097;-87
2023/08/23 13:01:34;;;;;;;3.80;1.30;;;;;;;;;;5075458;28;20019;-86
2023/08/23 13:03:59;;;;;;;2.88;1.40;;;;;;;;;;5073736;28;21894;-86
2023/08/23 13:06:25;;;;;;;5.93;1.55;;;;;;;;;;5056720;28;20111;-86
2023/08/23 13:08:50;;;;;;;3.58;1.50;;;;;;;;;;5057270;28;20017;-85
2023/08/23 13:11:15;;;;;;;4.90;1.27;;;;;;;;;;5056702;28;20009;-85
2023/08/23 13:13:43;;;;;;;4.43;1.40;;;;;;;;;;5056372;28;20064;-86
2023/08/23 13:16:08;;;;;;;2.50;1.33;;;;;;;;;;5074725;28;20360;-85
2023/08/23 13:18:34;;;;;;;3.53;1.60;;;;;;;;;;5057275;28;20089;-86
2023/08/23 13:20:59;;;;;;;2.50;1.33;;;;;;;;;;5055973;28;20088;-86
2023/08/23 13:23:24;;;;;;;7.03;1.55;;;;;;;;;;5055705;28;20078;-86
2023/08/23 13:25:50;;;;;;;3.33;1.50;;;;;;;;;;5062416;28;20018;-86
2023/08/23 13:28:15;;;;;;;2.38;1.30;;;;;;;;;;5074762;28;20008;-86
2023/08/23 13:30:44;;;;;;;7.30;1.40;;;;;;;;;;5073925;28;20063;-86
2023/08/23 13:33:10;;;;;;;3.20;1.58;;;;;;;;;;5057048;28;20025;-86
2023/08/23 13:35:35;;;;;;;4.93;1.08;;;;;;;;;;5073392;28;20036;-85
2023/08/23 13:38:01;;;;;;;3.85;1.23;;;;;;;;;;5090230;28;20494;-86
2023/08/23 13:40:26;;;;;;;4.32;1.70;;;;;;;;;;5056231;28;20513;-86
2023/08/23 13:42:51;;;;;;;3.88;1.50;;;;;;;;;;5067828;28;20669;-86
2023/08/23 13:45:17;;;;;;;3.38;1.42;;;;;;;;;;5055146;28;20021;-86
2023/08/23 13:47:42;;;;;;;2.83;1.20;;;;;;;;;;5073992;28;20118;-86
2023/08/23 13:50:09;;;;;;;2.67;1.20;;;;;;;;;;5056395;28;20013;-86
2023/08/23 13:52:34;;;;;;;2.67;1.20;;;;;;;;;;5074413;28;20082;-86
2023/08/23 13:54:59;;;;;;;2.33;1.13;;;;;;;;;;5072602;28;20025;-85
2023/08/23 13:57:25;;;;;;;3.15;1.17;;;;;;;;;;5055611;28;20024;-86
2023/08/23 13:59:50;;;;;;;4.13;1.20;;;;;;;;;;5055273;28;20021;-86
2023/08/23 14:02:16;;;;;;;6.72;1.50;;;;;;;;;;5055589;28;20019;-86
2023/08/23 14:04:41;;;;;;;3.08;1.48;;;;;;;;;;5056832;28;20482;-86
2023/08/23 14:07:06;;;;;;;6.85;1.30;;;;;;;;;;5055262;28;20017;-85
2023/08/23 14:09:32;;;;;;;2.92;1.20;;;;;;;;;;5054005;28;20012;-86
2023/08/23 14:11:57;;;;;;;3.15;1.27;;;;;;;;;;5063737;28;20019;-85
2023/08/23 14:14:23;;;;;;;4.35;1.30;;;;;;;;;;5056901;28;20098;-86
2023/08/23 14:16:48;;;;;;;3.38;1.40;;;;;;;;;;5056340;28;20026;-85
2023/08/23 14:19:14;;;;;;;4.47;1.40;;;;;;;;;;5072938;28;20028;-86
2023/08/23 14:21:40;;;;;;;4.65;1.40;;;;;;;;;;5055945;28;20031;-86
2023/08/23 14:24:06;;;;;;;3.67;1.20;;;;;;;;;;5075008;28;20089;-86
2023/08/23 14:26:32;;;;;;;5.35;1.20;;;;;;;;;;5072610;28;20021;-86
2023/08/23 14:28:57;;;;;;;3.10;1.10;;;;;;;;;;5055066;28;20157;-86
2023/08/23 14:31:25;;;;;;;5.07;1.30;;;;;;;;;;5073470;28;20087;-86
2023/08/23 14:33:50;;;;;;;3.67;1.30;;;;;;;;;;5055286;28;20490;-86
2023/08/23 14:36:16;;;;;;;4.13;1.40;;;;;;;;;;5053540;28;20037;-85